Terminal Aerodrome Forecast
Issued by NWS Twin Cities, MN

Home | Current Version | Previous Version | Graphics & Text | Print | Product List | Glossary On
Versions: 1 2 3 4 5 6 7 8 9 10 11 12 13 14 15 16 17 18 19 20 21 22 23 24 25 26 27 28 29 30
000
FTUS43 KMPX 152339
TAFMSP
TAF
KMSP 152339Z 1600/1706 VRB03KT P6SM BKN250
     FM161800 09003KT P6SM SCT050 BKN100
     FM162100 08004KT P6SM SCT025 OVC050
     FM170000 04004KT 5SM -SN BR SCT020 OVC035=

USA.gov is the U.S. government's official web portal to all federal, state and local government web resources and services.